Time;durP1;ratioP1;P1;durP2;ratioP2;P2;SDS_P1;SDS_P2;PMS_P1;PMS_P2;Temp;Humidity;BMP_temperature;BMP_pressure;BME280_temperature;BME280_humidity;BME280_pressure;Samples;Min_cycle;Max_cycle;Signal;HPM_P1;HPM_P2
2020/12/08 00:02:21;;;;;;;18.33;11.70;;;5.20;99.90;;;;;;5047990;28;20032;-50
2020/12/08 00:04:46;;;;;;;19.27;12.18;;;5.20;99.90;;;;;;5049324;28;20270;-47
2020/12/08 00:07:12;;;;;;;17.75;12.55;;;5.20;99.90;;;;;;5048992;28;20025;-49
2020/12/08 00:09:38;;;;;;;17.60;12.38;;;5.20;99.90;;;;;;5049401;28;20031;-50
2020/12/08 00:12:04;;;;;;;18.05;12.57;;;5.10;99.90;;;;;;5048680;28;20226;-50
2020/12/08 00:14:30;;;;;;;17.65;12.35;;;5.10;99.90;;;;;;5049109;28;20036;-48
2020/12/08 00:16:55;;;;;;;20.48;12.85;;;5.20;99.90;;;;;;5049076;28;20025;-51
2020/12/08 00:19:20;;;;;;;23.70;13.80;;;5.20;99.90;;;;;;5049058;28;20032;-48
2020/12/08 00:21:46;;;;;;;20.38;12.38;;;5.10;99.90;;;;;;5047917;28;20028;-50
2020/12/08 00:24:13;;;;;;;18.17;11.98;;;5.10;99.90;;;;;;5049094;28;20028;-47
2020/12/08 00:26:39;;;;;;;20.80;13.05;;;5.20;99.90;;;;;;5049048;28;20506;-47
2020/12/08 00:29:08;;;;;;;19.42;13.20;;;5.10;99.90;;;;;;5049036;28;20479;-48
2020/12/08 00:31:34;;;;;;;19.85;13.48;;;5.10;99.90;;;;;;5047628;28;20067;-50
2020/12/08 00:34:00;;;;;;;19.60;12.32;;;5.10;99.90;;;;;;5034932;28;20029;-49
2020/12/08 00:36:26;;;;;;;20.25;12.70;;;5.10;99.90;;;;;;5048480;28;20036;-48
2020/12/08 00:38:52;;;;;;;21.80;13.13;;;5.20;99.90;;;;;;5048768;28;20151;-47
2020/12/08 00:41:19;;;;;;;21.08;13.15;;;5.10;99.90;;;;;;5048252;28;20021;-48
2020/12/08 00:43:45;;;;;;;17.02;11.07;;;5.10;99.90;;;;;;5049005;28;20387;-49
2020/12/08 00:46:12;;;;;;;18.33;12.50;;;5.10;99.90;;;;;;5048793;28;20102;-49
2020/12/08 00:48:38;;;;;;;16.75;11.43;;;5.10;99.90;;;;;;5048807;28;20447;-49
2020/12/08 00:51:04;;;;;;;19.05;12.18;;;5.10;99.90;;;;;;5047831;28;20017;-51
2020/12/08 00:53:30;;;;;;;18.23;12.85;;;5.10;99.90;;;;;;5048510;28;20075;-49
2020/12/08 00:55:56;;;;;;;17.75;11.63;;;5.10;99.90;;;;;;5048330;28;20036;-48
2020/12/08 00:58:21;;;;;;;22.27;13.23;;;5.10;99.90;;;;;;5048458;28;20181;-51
2020/12/08 01:00:47;;;;;;;20.77;13.88;;;5.10;99.90;;;;;;5047823;28;20028;-52
2020/12/08 01:03:12;;;;;;;20.77;13.55;;;5.10;99.90;;;;;;5048330;28;20048;-51
2020/12/08 01:05:38;;;;;;;22.08;14.48;;;5.10;99.90;;;;;;5048347;28;20100;-52
2020/12/08 01:08:03;;;;;;;19.08;13.70;;;5.00;99.90;;;;;;5048215;28;20374;-51
2020/12/08 01:10:29;;;;;;;19.88;12.85;;;5.00;99.90;;;;;;5048078;28;20079;-48
2020/12/08 01:12:54;;;;;;;22.42;15.02;;;5.00;99.90;;;;;;5048353;28;20021;-50
2020/12/08 01:15:20;;;;;;;26.05;16.60;;;5.00;99.90;;;;;;5048248;28;20088;-51
2020/12/08 01:17:45;;;;;;;20.77;13.93;;;5.00;99.90;;;;;;5048287;28;20035;-49
2020/12/08 01:20:11;;;;;;;24.10;15.10;;;5.00;99.90;;;;;;5048364;28;20021;-51
2020/12/08 01:22:36;;;;;;;22.15;14.82;;;5.00;99.90;;;;;;5047484;28;20036;-49
2020/12/08 01:25:02;;;;;;;23.60;14.85;;;5.00;99.90;;;;;;5048065;28;20025;-49
2020/12/08 01:27:32;;;;;;;19.98;13.73;;;5.00;99.90;;;;;;5048099;28;20451;-52
2020/12/08 01:29:57;;;;;;;25.73;16.23;;;5.00;99.90;;;;;;5048195;28;20021;-51
2020/12/08 01:32:22;;;;;;;22.88;14.45;;;5.00;99.90;;;;;;5044068;28;20502;-51
2020/12/08 01:34:48;;;;;;;24.45;15.23;;;5.00;99.90;;;;;;5037501;28;20074;-51
2020/12/08 01:37:13;;;;;;;23.48;14.85;;;5.00;99.90;;;;;;5046375;28;20032;-50
2020/12/08 01:39:39;;;;;;;23.77;16.17;;;5.00;99.90;;;;;;5048353;28;20025;-49
2020/12/08 01:42:04;;;;;;;25.35;15.93;;;5.00;99.90;;;;;;5049390;28;20021;-47
2020/12/08 01:44:30;;;;;;;23.70;15.15;;;5.00;99.90;;;;;;5051836;28;20398;-49
2020/12/08 01:46:56;;;;;;;24.92;15.80;;;5.00;99.90;;;;;;5050958;28;20048;-47
2020/12/08 01:49:21;;;;;;;26.30;16.63;;;4.90;99.90;;;;;;5052150;28;20070;-47
2020/12/08 01:51:47;;;;;;;26.95;16.77;;;5.00;99.90;;;;;;5051028;28;20533;-48
2020/12/08 01:54:14;;;;;;;30.05;17.33;;;4.90;99.90;;;;;;5052031;28;20402;-49
2020/12/08 01:56:39;;;;;;;25.35;16.60;;;5.00;99.90;;;;;;5052003;28;20037;-49
2020/12/08 01:59:05;;;;;;;26.17;17.30;;;4.90;99.90;;;;;;5051756;28;20091;-48
2020/12/08 02:01:31;;;;;;;26.55;16.75;;;5.00;99.90;;;;;;5050810;28;20032;-50
2020/12/08 02:03:57;;;;;;;25.70;16.88;;;5.00;99.90;;;;;;5051502;28;20025;-48
2020/12/08 02:06:25;;;;;;;25.95;16.05;;;4.90;99.90;;;;;;5051613;28;20028;-48
2020/12/08 02:08:51;;;;;;;24.52;15.13;;;5.00;99.90;;;;;;5051375;28;20071;-49
2020/12/08 02:11:17;;;;;;;24.38;16.20;;;4.90;99.90;;;;;;5050870;28;20028;-51
2020/12/08 02:13:42;;;;;;;24.88;16.02;;;5.00;99.90;;;;;;5051567;28;20036;-50
2020/12/08 02:16:08;;;;;;;22.60;15.90;;;4.90;99.90;;;;;;5051549;28;20021;-51
2020/12/08 02:18:34;;;;;;;24.33;15.82;;;4.90;99.90;;;;;;5051696;28;20283;-51
2020/12/08 02:21:01;;;;;;;27.27;16.52;;;4.90;99.90;;;;;;5050962;28;20100;-48
2020/12/08 02:23:27;;;;;;;24.65;16.55;;;4.90;99.90;;;;;;5051156;28;20027;-47
2020/12/08 02:25:57;;;;;;;25.77;17.35;;;4.90;99.90;;;;;;5050270;28;20044;-47
2020/12/08 02:28:22;;;;;;;24.88;15.45;;;4.90;99.90;;;;;;5051077;28;20501;-50
2020/12/08 02:30:48;;;;;;;23.60;15.50;;;4.90;99.90;;;;;;5050451;28;20021;-51
2020/12/08 02:33:13;;;;;;;23.05;15.50;;;4.90;99.90;;;;;;5040689;28;20263;-48
2020/12/08 02:35:39;;;;;;;25.55;17.20;;;4.90;99.90;;;;;;5045232;28;20041;-47
2020/12/08 02:38:05;;;;;;;26.02;16.75;;;4.90;99.90;;;;;;5050992;28;20053;-47
2020/12/08 02:40:30;;;;;;;27.92;16.77;;;4.90;99.90;;;;;;5050625;28;20387;-50
2020/12/08 02:42:56;;;;;;;26.98;16.63;;;4.80;99.90;;;;;;5049493;28;20017;-48
2020/12/08 02:45:21;;;;;;;26.95;16.75;;;4.80;99.90;;;;;;5050877;28;20477;-49
2020/12/08 02:47:47;;;;;;;27.15;17.08;;;4.70;99.90;;;;;;5049304;28;20126;-48
2020/12/08 02:50:12;;;;;;;29.08;18.58;;;4.70;99.90;;;;;;5050905;28;20096;-47
2020/12/08 02:52:38;;;;;;;31.58;18.02;;;4.60;99.90;;;;;;5048140;28;20440;-51
2020/12/08 02:55:04;;;;;;;30.20;18.30;;;4.50;99.90;;;;;;5050129;28;20036;-47
2020/12/08 02:57:29;;;;;;;28.75;17.58;;;4.50;99.90;;;;;;5049115;28;20037;-48
2020/12/08 02:59:55;;;;;;;31.50;18.52;;;4.50;99.90;;;;;;5050707;28;20075;-46
2020/12/08 03:02:20;;;;;;;30.40;18.38;;;4.50;99.90;;;;;;5049517;28;20132;-46
2020/12/08 03:04:46;;;;;;;30.98;19.67;;;4.40;99.90;;;;;;5050098;28;20383;-46
2020/12/08 03:07:11;;;;;;;29.73;18.95;;;4.40;99.90;;;;;;5050336;28;20044;-46
2020/12/08 03:09:37;;;;;;;33.20;19.77;;;4.40;99.90;;;;;;5050492;28;20503;-46
2020/12/08 03:12:08;;;;;;;33.22;20.35;;;4.40;99.90;;;;;;5049998;28;20024;-46
2020/12/08 03:14:33;;;;;;;33.05;19.10;;;4.40;99.90;;;;;;5050586;28;20028;-46
2020/12/08 03:16:59;;;;;;;30.35;19.40;;;4.30;99.90;;;;;;5050628;28;20025;-45
2020/12/08 03:19:24;;;;;;;28.40;18.25;;;4.40;99.90;;;;;;5050650;28;20056;-44
2020/12/08 03:21:50;;;;;;;29.58;19.40;;;4.30;99.90;;;;;;5049396;28;20029;-44
2020/12/08 03:24:15;;;;;;;30.77;19.25;;;4.40;99.90;;;;;;5050244;28;20171;-44
2020/12/08 03:26:41;;;;;;;30.08;19.67;;;4.40;99.90;;;;;;5050220;28;20382;-45
2020/12/08 03:29:06;;;;;;;32.65;18.92;;;4.40;99.90;;;;;;5048726;28;20025;-45
2020/12/08 03:31:32;;;;;;;33.40;19.00;;;4.40;99.90;;;;;;5049459;28;20029;-47
2020/12/08 03:33:57;;;;;;;29.50;17.33;;;4.40;99.90;;;;;;5035916;28;20065;-45
2020/12/08 03:36:23;;;;;;;25.25;16.17;;;4.40;99.90;;;;;;5050018;28;20022;-48
2020/12/08 03:38:49;;;;;;;30.35;18.17;;;4.40;99.90;;;;;;5049504;28;20033;-46
2020/12/08 03:41:22;;;;;;;31.40;18.83;;;4.40;99.90;;;;;;5049151;28;20021;-47
2020/12/08 03:43:49;;;;;;;29.05;19.23;;;4.50;99.90;;;;;;5049687;28;20029;-46
2020/12/08 03:46:19;;;;;;;29.20;17.35;;;4.40;99.90;;;;;;5049881;28;20265;-46
2020/12/08 03:48:44;;;;;;;31.63;19.40;;;4.40;99.90;;;;;;5048440;28;20382;-49
2020/12/08 03:51:21;;;;;;;26.83;17.67;;;4.50;99.90;;;;;;5049228;28;20025;-45
2020/12/08 03:53:47;;;;;;;31.70;19.20;;;4.50;99.90;;;;;;5049514;28;20111;-48
2020/12/08 03:56:15;;;;;;;31.08;19.05;;;4.50;99.90;;;;;;5049486;28;20041;-47
2020/12/08 03:58:41;;;;;;;27.40;17.20;;;4.50;99.90;;;;;;5048489;28;20126;-47
2020/12/08 04:01:22;;;;;;;36.78;18.25;;;4.50;99.90;;;;;;5049077;28;20021;-46
2020/12/08 04:03:49;;;;;;;26.95;18.02;;;4.50;99.90;;;;;;5049698;28;20051;-46
2020/12/08 04:06:16;;;;;;;29.48;18.98;;;4.40;99.90;;;;;;5047860;28;20490;-49
2020/12/08 04:08:42;;;;;;;33.65;20.33;;;4.50;99.90;;;;;;5047863;28;20025;-46
2020/12/08 04:11:09;;;;;;;29.52;19.40;;;4.50;99.90;;;;;;5032513;28;20081;-49
2020/12/08 04:13:34;;;;;;;30.70;19.83;;;4.50;99.90;;;;;;5028598;28;20029;-45
2020/12/08 04:16:01;;;;;;;29.23;18.80;;;4.50;99.90;;;;;;5030781;28;20352;-48
2020/12/08 04:18:26;;;;;;;36.47;20.52;;;4.50;99.90;;;;;;5028692;28;20494;-46
2020/12/08 04:20:52;;;;;;;28.83;19.10;;;4.50;99.90;;;;;;5028336;28;20068;-45
2020/12/08 04:23:18;;;;;;;32.53;20.13;;;4.50;99.90;;;;;;5027030;28;20018;-47
2020/12/08 04:25:45;;;;;;;30.88;19.02;;;4.50;99.90;;;;;;5028608;28;20020;-49
2020/12/08 04:28:10;;;;;;;28.77;18.75;;;4.50;99.90;;;;;;5028707;28;20374;-50
2020/12/08 04:30:39;;;;;;;30.95;19.13;;;4.50;99.90;;;;;;5027794;28;20028;-47
2020/12/08 04:33:05;;;;;;;30.15;20.15;;;4.50;99.90;;;;;;5028576;28;20411;-47
2020/12/08 04:35:31;;;;;;;34.88;21.00;;;4.50;99.90;;;;;;5027990;28;20029;-46
2020/12/08 04:37:57;;;;;;;29.75;19.27;;;4.50;99.90;;;;;;5026827;28;20112;-48
2020/12/08 04:40:24;;;;;;;32.92;20.13;;;4.50;99.90;;;;;;5029591;28;20041;-50
2020/12/08 04:42:55;;;;;;;28.55;19.33;;;4.50;99.90;;;;;;5027280;28;20037;-47
2020/12/08 04:45:23;;;;;;;30.80;20.40;;;4.50;99.90;;;;;;5034425;28;20017;-47
2020/12/08 04:47:50;;;;;;;30.63;20.10;;;4.50;99.90;;;;;;5029352;28;20116;-48
2020/12/08 04:50:17;;;;;;;33.95;20.23;;;4.50;99.90;;;;;;5035145;28;20499;-46
2020/12/08 04:52:44;;;;;;;28.92;19.38;;;4.50;99.90;;;;;;5027570;28;20041;-47
2020/12/08 04:55:11;;;;;;;31.92;19.65;;;4.50;99.90;;;;;;5028654;28;20390;-46
2020/12/08 04:57:39;;;;;;;28.08;18.58;;;4.50;99.90;;;;;;5028447;28;20033;-46
2020/12/08 05:00:06;;;;;;;29.90;19.27;;;4.50;99.90;;;;;;5030014;28;20021;-46
2020/12/08 05:02:32;;;;;;;31.60;21.15;;;4.50;99.90;;;;;;5029201;28;20049;-47
2020/12/08 05:04:57;;;;;;;30.13;19.42;;;4.50;99.90;;;;;;5028569;28;20683;-46
2020/12/08 05:07:29;;;;;;;31.77;18.83;;;4.50;99.90;;;;;;5029644;28;20064;-49
2020/12/08 05:09:54;;;;;;;29.45;18.63;;;4.50;99.90;;;;;;5029740;28;20088;-47
2020/12/08 05:12:24;;;;;;;26.88;18.58;;;4.50;99.90;;;;;;5029211;28;20021;-49
2020/12/08 05:14:50;;;;;;;28.67;19.02;;;4.50;99.90;;;;;;5029725;28;20036;-46
2020/12/08 05:17:22;;;;;;;26.15;18.13;;;4.60;99.90;;;;;;5029296;28;20013;-47
2020/12/08 05:20:09;;;;;;;28.90;19.20;;;4.60;99.90;;;;;;5039717;28;20515;-47
2020/12/08 05:22:39;;;;;;;31.42;19.33;;;4.60;99.90;;;;;;5033623;28;20041;-46
2020/12/08 05:25:12;;;;;;;32.60;19.90;;;4.60;99.90;;;;;;5027368;28;20025;-46
2020/12/08 05:27:38;;;;;;;29.20;18.52;;;4.60;99.90;;;;;;5028805;28;20029;-46
2020/12/08 05:30:07;;;;;;;28.38;18.50;;;4.60;99.90;;;;;;5029271;28;20026;-47
2020/12/08 05:32:40;;;;;;;29.53;18.27;;;4.60;99.90;;;;;;5026797;28;20033;-48
2020/12/08 05:35:09;;;;;;;29.40;19.58;;;4.60;99.90;;;;;;5030706;28;20064;-46
2020/12/08 05:37:42;;;;;;;27.15;17.27;;;4.60;99.90;;;;;;5026948;28;20040;-47
2020/12/08 05:40:14;;;;;;;32.97;19.88;;;4.60;99.90;;;;;;5027427;28;20029;-46
2020/12/08 05:42:42;;;;;;;29.70;19.92;;;4.70;99.90;;;;;;5028494;28;20022;-45
2020/12/08 05:45:11;;;;;;;28.77;19.30;;;4.70;99.90;;;;;;5029516;28;20092;-46
2020/12/08 05:47:51;;;;;;;32.75;20.00;;;4.70;99.90;;;;;;5028754;28;20029;-45
2020/12/08 05:50:19;;;;;;;30.00;19.05;;;4.70;99.90;;;;;;5027881;28;20048;-44
2020/12/08 05:53:10;;;;;;;29.38;17.88;;;4.70;99.90;;;;;;5026732;28;20108;-47
2020/12/08 05:55:36;;;;;;;29.23;19.15;;;4.70;99.90;;;;;;5027185;28;20045;-44
2020/12/08 05:58:06;;;;;;;27.70;17.63;;;4.70;99.90;;;;;;5026178;28;20071;-46
2020/12/08 06:00:33;;;;;;;31.40;20.33;;;4.70;99.90;;;;;;5027404;28;20025;-47
2020/12/08 06:03:11;;;;;;;28.80;18.13;;;4.60;99.90;;;;;;5028552;28;20060;-45
2020/12/08 06:05:37;;;;;;;28.85;18.23;;;4.70;99.90;;;;;;5028928;28;20022;-45
2020/12/08 06:08:16;;;;;;;30.48;20.02;;;4.70;99.90;;;;;;5028556;28;20017;-44
2020/12/08 06:10:53;;;;;;;27.77;18.48;;;4.70;99.90;;;;;;5036171;28;20743;-44
2020/12/08 06:13:32;;;;;;;35.33;19.25;;;4.70;99.90;;;;;;5030223;28;20092;-44
2020/12/08 06:15:59;;;;;;;28.75;18.60;;;4.70;99.90;;;;;;5030963;28;20029;-44
2020/12/08 06:18:33;;;;;;;27.67;18.08;;;4.70;99.90;;;;;;5033372;28;20032;-44
2020/12/08 06:21:01;;;;;;;30.15;17.33;;;4.70;99.90;;;;;;5038700;28;20048;-44
2020/12/08 06:23:28;;;;;;;30.17;18.00;;;4.70;99.90;;;;;;5029744;28;20116;-44
2020/12/08 06:26:01;;;;;;;32.03;19.38;;;4.70;99.90;;;;;;5030516;28;20084;-44
2020/12/08 06:28:27;;;;;;;32.47;20.02;;;4.70;99.90;;;;;;5030243;28;20083;-43
2020/12/08 06:31:07;;;;;;;32.92;19.13;;;4.70;99.90;;;;;;5031392;28;20030;-44
2020/12/08 06:33:56;;;;;;;32.38;19.90;;;4.70;99.90;;;;;;5030886;28;20597;-44
2020/12/08 06:36:23;;;;;;;28.00;18.67;;;4.60;99.90;;;;;;5030561;28;20034;-44
2020/12/08 06:39:00;;;;;;;32.28;18.38;;;4.60;99.90;;;;;;5029216;28;20049;-45
2020/12/08 06:41:36;;;;;;;30.55;19.08;;;4.60;99.90;;;;;;5030096;28;20537;-44
2020/12/08 06:44:11;;;;;;;30.77;18.63;;;4.60;99.90;;;;;;5030947;28;20029;-45
2020/12/08 06:46:37;;;;;;;30.52;18.08;;;4.60;99.90;;;;;;5029721;28;20439;-44
2020/12/08 06:49:07;;;;;;;34.38;18.85;;;4.60;99.90;;;;;;5029658;28;20108;-45
2020/12/08 06:51:34;;;;;;;28.92;18.80;;;4.60;99.90;;;;;;5028429;28;20502;-44
2020/12/08 06:54:14;;;;;;;31.25;18.55;;;4.60;99.90;;;;;;5029016;28;20167;-45
2020/12/08 06:56:40;;;;;;;30.08;18.67;;;4.60;99.90;;;;;;5031517;28;20064;-44
2020/12/08 06:59:05;;;;;;;30.17;18.40;;;4.60;99.90;;;;;;5031593;28;20021;-45
2020/12/08 07:01:31;;;;;;;32.08;19.98;;;4.60;99.90;;;;;;5030834;28;20033;-46
2020/12/08 07:03:57;;;;;;;30.17;17.58;;;4.60;99.90;;;;;;5030723;28;20040;-46
2020/12/08 07:06:25;;;;;;;27.60;17.95;;;4.60;99.90;;;;;;5030809;28;20022;-44
2020/12/08 07:08:51;;;;;;;33.00;19.88;;;4.60;99.90;;;;;;5030938;28;20029;-45
2020/12/08 07:11:21;;;;;;;29.85;19.20;;;4.50;99.90;;;;;;5031518;28;20021;-43
2020/12/08 07:14:01;;;;;;;36.97;21.10;;;4.50;99.90;;;;;;5031295;28;20021;-44
2020/12/08 07:16:29;;;;;;;34.67;19.20;;;4.40;99.90;;;;;;5031033;28;20114;-44
2020/12/08 07:18:56;;;;;;;34.17;21.27;;;4.40;99.90;;;;;;5031307;28;20017;-45
2020/12/08 07:21:22;;;;;;;32.25;19.48;;;4.40;99.90;;;;;;5030257;28;20057;-45
2020/12/08 07:23:52;;;;;;;29.35;18.30;;;4.40;99.90;;;;;;5030763;28;20022;-46
2020/12/08 07:26:28;;;;;;;29.23;18.17;;;4.30;99.90;;;;;;5031188;28;20018;-44
2020/12/08 07:28:56;;;;;;;30.55;18.35;;;4.30;99.90;;;;;;5031001;28;20022;-44
2020/12/08 07:31:31;;;;;;;31.60;18.60;;;4.20;99.90;;;;;;5030332;28;20021;-44
2020/12/08 07:34:01;;;;;;;30.73;19.30;;;4.20;99.90;;;;;;5032274;28;20124;-45
2020/12/08 07:36:29;;;;;;;32.97;18.65;;;4.20;99.90;;;;;;5030921;28;20029;-44
2020/12/08 07:38:56;;;;;;;33.22;19.67;;;4.10;99.90;;;;;;5029845;28;20024;-46
2020/12/08 07:41:27;;;;;;;33.17;19.88;;;4.10;99.90;;;;;;5030815;28;20422;-46
2020/12/08 07:43:55;;;;;;;30.35;18.45;;;4.10;99.90;;;;;;5044225;28;20024;-44
2020/12/08 07:46:28;;;;;;;32.83;18.35;;;4.10;99.90;;;;;;5033475;28;20033;-44
2020/12/08 07:49:08;;;;;;;32.80;19.15;;;4.10;99.90;;;;;;5029355;28;20100;-46
2020/12/08 07:51:36;;;;;;;32.42;19.33;;;4.00;99.90;;;;;;5029988;28;20026;-46
2020/12/08 07:54:02;;;;;;;34.88;18.95;;;4.00;99.90;;;;;;5030376;28;20037;-45
2020/12/08 07:56:30;;;;;;;30.67;18.85;;;4.00;99.90;;;;;;5030502;28;20040;-46
2020/12/08 07:58:56;;;;;;;33.53;20.58;;;4.00;99.90;;;;;;5030418;28;20025;-46
2020/12/08 08:01:22;;;;;;;28.70;17.35;;;4.00;99.90;;;;;;5051447;28;20033;-46
2020/12/08 08:03:48;;;;;;;29.65;18.42;;;4.00;99.90;;;;;;5042064;28;20029;-47
2020/12/08 08:06:22;;;;;;;30.48;17.38;;;4.00;99.90;;;;;;5032965;28;20352;-46
2020/12/08 08:08:48;;;;;;;32.20;17.88;;;4.00;99.90;;;;;;5037628;28;20051;-49
2020/12/08 08:11:14;;;;;;;28.90;16.88;;;4.00;99.90;;;;;;5034316;28;20017;-50
2020/12/08 08:13:40;;;;;;;31.48;18.98;;;4.00;99.90;;;;;;5030222;28;20045;-48
2020/12/08 08:16:14;;;;;;;36.40;20.48;;;4.00;99.90;;;;;;5030365;28;20030;-49
2020/12/08 08:18:40;;;;;;;32.28;18.67;;;4.10;99.90;;;;;;5033329;28;20033;-46
2020/12/08 08:21:07;;;;;;;31.50;17.63;;;4.10;99.90;;;;;;5035342;28;20029;-47
2020/12/08 08:23:33;;;;;;;29.85;17.95;;;4.10;99.90;;;;;;5031064;28;20413;-47
2020/12/08 08:25:59;;;;;;;31.27;19.23;;;4.10;99.90;;;;;;5030043;28;20289;-45
2020/12/08 08:28:25;;;;;;;32.83;20.30;;;4.10;99.90;;;;;;5034799;28;20018;-48
2020/12/08 08:30:52;;;;;;;34.45;19.42;;;4.10;99.90;;;;;;5038568;28;20100;-44
2020/12/08 08:33:17;;;;;;;31.80;20.08;;;4.20;99.90;;;;;;5039508;28;20031;-46
2020/12/08 08:35:43;;;;;;;30.02;18.40;;;4.20;99.90;;;;;;5032874;28;20506;-44
2020/12/08 08:38:09;;;;;;;33.80;20.20;;;4.30;99.90;;;;;;5029904;28;20028;-45
2020/12/08 08:40:35;;;;;;;31.00;19.20;;;4.20;99.90;;;;;;5033427;28;20024;-44
2020/12/08 08:43:00;;;;;;;29.60;17.90;;;4.20;99.90;;;;;;5033180;28;20029;-45
2020/12/08 08:45:27;;;;;;;30.27;18.10;;;4.20;99.90;;;;;;5029845;28;20025;-46
2020/12/08 08:47:52;;;;;;;31.98;19.90;;;4.30;99.90;;;;;;5032181;28;20026;-50
2020/12/08 08:50:18;;;;;;;32.53;18.75;;;4.30;99.90;;;;;;5029671;28;20382;-49
2020/12/08 08:52:44;;;;;;;30.58;19.17;;;4.30;99.90;;;;;;5028408;28;20096;-46
2020/12/08 08:55:11;;;;;;;30.83;19.40;;;4.30;99.90;;;;;;5020614;28;20029;-48
2020/12/08 08:57:38;;;;;;;31.05;18.40;;;4.40;99.90;;;;;;5031501;28;20030;-47
2020/12/08 09:00:09;;;;;;;32.03;19.95;;;4.50;99.90;;;;;;5039366;28;20477;-45
2020/12/08 09:02:34;;;;;;;27.42;17.88;;;4.50;99.90;;;;;;5030420;28;20060;-49
2020/12/08 09:05:00;;;;;;;31.98;20.23;;;4.50;99.90;;;;;;5037379;28;20483;-48
2020/12/08 09:07:28;;;;;;;28.10;17.83;;;4.50;99.90;;;;;;5029889;28;20030;-47
2020/12/08 09:09:54;;;;;;;30.08;19.42;;;4.60;99.90;;;;;;5042248;28;20025;-47
2020/12/08 09:12:19;;;;;;;29.88;19.75;;;4.70;99.90;;;;;;5035096;28;20097;-48
2020/12/08 09:14:46;;;;;;;32.53;19.45;;;4.70;99.90;;;;;;5029094;28;20029;-46
2020/12/08 09:17:11;;;;;;;36.88;21.17;;;4.70;99.90;;;;;;5029807;28;20033;-48
2020/12/08 09:19:37;;;;;;;33.75;18.60;;;4.80;99.90;;;;;;5031724;28;20037;-45
2020/12/08 09:22:03;;;;;;;31.00;19.17;;;4.80;99.90;;;;;;5039374;28;20032;-46
2020/12/08 09:24:29;;;;;;;29.80;19.05;;;4.80;99.90;;;;;;5028696;28;20155;-48
2020/12/08 09:26:55;;;;;;;38.58;21.65;;;4.80;99.90;;;;;;5028880;28;20462;-46
2020/12/08 09:29:21;;;;;;;34.70;21.00;;;4.90;99.90;;;;;;5030242;28;20029;-46
2020/12/08 09:31:46;;;;;;;33.63;20.35;;;4.90;99.90;;;;;;5028924;28;20053;-46
2020/12/08 09:34:12;;;;;;;31.20;20.45;;;5.00;99.90;;;;;;5037732;28;20025;-46
2020/12/08 09:36:38;;;;;;;30.40;19.73;;;5.10;99.90;;;;;;5031387;28;20038;-47
2020/12/08 09:39:03;;;;;;;33.45;20.45;;;5.20;99.90;;;;;;5031430;28;20033;-49
2020/12/08 09:41:29;;;;;;;32.88;20.35;;;5.20;99.90;;;;;;5029925;28;20057;-47
2020/12/08 09:43:55;;;;;;;30.45;19.08;;;5.30;99.90;;;;;;5029422;28;20032;-46
2020/12/08 09:46:21;;;;;;;30.58;19.90;;;5.30;99.90;;;;;;5028727;28;20014;-46
2020/12/08 09:48:46;;;;;;;34.67;20.92;;;5.40;99.90;;;;;;5032384;28;20432;-47
2020/12/08 09:51:12;;;;;;;34.70;21.70;;;5.50;99.90;;;;;;5032962;28;20026;-46
2020/12/08 09:53:38;;;;;;;34.15;20.23;;;5.50;99.90;;;;;;5033260;28;20029;-51
2020/12/08 09:56:03;;;;;;;32.50;20.17;;;5.40;99.90;;;;;;5028262;28;20037;-46
2020/12/08 09:58:29;;;;;;;29.55;19.58;;;5.40;99.90;;;;;;5028797;28;20043;-46
2020/12/08 10:00:55;;;;;;;32.13;20.58;;;5.50;99.90;;;;;;5034350;28;20029;-50
2020/12/08 10:03:20;;;;;;;33.45;20.35;;;5.50;99.90;;;;;;5031282;28;20029;-47
2020/12/08 10:05:46;;;;;;;32.33;19.95;;;5.50;99.90;;;;;;5032571;28;20022;-47
2020/12/08 10:08:11;;;;;;;27.55;19.58;;;5.60;99.90;;;;;;5033009;28;20433;-47
2020/12/08 10:10:37;;;;;;;31.40;20.63;;;5.70;99.90;;;;;;5031715;28;20025;-47
2020/12/08 10:13:03;;;;;;;30.48;20.92;;;5.80;99.90;;;;;;5033085;28;20029;-48
2020/12/08 10:15:28;;;;;;;35.08;21.90;;;5.90;99.90;;;;;;5032209;28;20025;-48
2020/12/08 10:17:54;;;;;;;30.60;20.70;;;5.90;99.90;;;;;;5032948;28;20103;-46
2020/12/08 10:20:20;;;;;;;34.10;20.10;;;5.90;99.90;;;;;;5033649;28;20034;-46
2020/12/08 10:22:46;;;;;;;30.67;19.85;;;6.00;99.90;;;;;;5033662;28;20074;-46
2020/12/08 10:25:12;;;;;;;29.17;19.10;;;6.10;99.90;;;;;;5030763;28;20057;-48
2020/12/08 10:27:37;;;;;;;32.75;20.55;;;6.20;99.90;;;;;;5032207;28;20021;-47
2020/12/08 10:30:06;;;;;;;30.92;20.85;;;6.30;99.90;;;;;;5034056;28;20026;-47
2020/12/08 10:32:31;;;;;;;33.75;20.85;;;6.40;99.90;;;;;;5033688;28;20053;-47
2020/12/08 10:34:57;;;;;;;32.03;18.85;;;6.60;99.90;;;;;;5031772;28;20450;-47
2020/12/08 10:37:23;;;;;;;30.60;18.77;;;7.10;99.90;;;;;;5032094;28;20481;-45
2020/12/08 10:39:48;;;;;;;25.38;16.85;;;7.60;99.90;;;;;;5033005;28;20025;-46
2020/12/08 10:42:14;;;;;;;23.65;16.83;;;8.30;99.90;;;;;;5032116;28;20041;-46
2020/12/08 10:44:39;;;;;;;23.73;17.95;;;9.00;99.90;;;;;;5034050;28;20029;-46
2020/12/08 10:47:05;;;;;;;23.73;17.65;;;9.40;99.90;;;;;;5032296;28;20056;-46
2020/12/08 10:49:31;;;;;;;20.38;15.07;;;10.20;99.90;;;;;;5032616;28;20525;-49
2020/12/08 10:51:56;;;;;;;22.73;16.48;;;10.70;99.90;;;;;;5032083;28;20473;-47
2020/12/08 10:54:23;;;;;;;21.83;16.60;;;11.10;99.90;;;;;;5031412;28;20082;-46
2020/12/08 10:56:52;;;;;;;24.27;17.00;;;11.40;99.20;;;;;;5032812;28;20055;-48
2020/12/08 10:59:17;;;;;;;21.42;16.17;;;11.70;98.50;;;;;;5035108;28;20033;-46
2020/12/08 11:01:43;;;;;;;20.40;15.23;;;12.30;94.90;;;;;;5030280;28;20021;-46
2020/12/08 11:04:09;;;;;;;17.70;15.00;;;12.20;94.80;;;;;;5031901;28;20075;-48
2020/12/08 11:06:35;;;;;;;18.75;15.80;;;12.50;94.10;;;;;;5031293;28;20056;-47
2020/12/08 11:09:00;;;;;;;18.52;15.40;;;12.40;92.10;;;;;;5033092;28;20020;-47
2020/12/08 11:11:28;;;;;;;21.23;16.08;;;12.20;92.50;;;;;;5031559;28;20036;-48
2020/12/08 11:13:56;;;;;;;20.30;15.63;;;11.60;93.10;;;;;;5031210;28;20017;-46
2020/12/08 11:16:22;;;;;;;19.38;15.02;;;11.30;95.30;;;;;;5032449;28;20022;-47
2020/12/08 11:18:48;;;;;;;21.45;17.00;;;10.80;96.20;;;;;;5037505;28;20060;-46
2020/12/08 11:21:15;;;;;;;19.27;15.75;;;10.30;98.00;;;;;;5031547;28;20021;-46
2020/12/08 11:23:41;;;;;;;20.20;15.60;;;9.80;99.90;;;;;;5031279;28;20056;-47
2020/12/08 11:26:11;;;;;;;20.08;16.23;;;9.50;99.90;;;;;;5033532;28;20021;-49
2020/12/08 11:28:37;;;;;;;25.35;17.27;;;9.20;99.90;;;;;;5032188;28;20044;-49
2020/12/08 11:31:02;;;;;;;23.70;18.33;;;8.90;99.90;;;;;;5032524;28;20072;-46
2020/12/08 11:33:28;;;;;;;22.45;17.35;;;8.70;99.90;;;;;;5031582;28;20402;-47
2020/12/08 11:35:54;;;;;;;26.42;18.10;;;8.50;99.90;;;;;;5049079;28;20040;-46
2020/12/08 11:38:20;;;;;;;27.92;17.25;;;8.40;99.90;;;;;;5049791;28;20684;-46
2020/12/08 11:40:46;;;;;;;26.95;17.63;;;8.30;99.90;;;;;;5046310;28;20112;-46
2020/12/08 11:43:11;;;;;;;24.88;17.40;;;8.20;99.90;;;;;;5033351;28;20025;-46
2020/12/08 11:45:37;;;;;;;28.30;18.70;;;8.10;99.90;;;;;;5029941;28;20628;-47
2020/12/08 11:48:03;;;;;;;26.73;17.77;;;8.20;99.90;;;;;;5031233;28;20017;-48
2020/12/08 11:50:29;;;;;;;26.45;17.17;;;8.20;99.90;;;;;;5032387;28;20546;-47
2020/12/08 11:52:54;;;;;;;24.60;17.35;;;8.10;99.90;;;;;;5031242;28;20052;-47
2020/12/08 11:55:20;;;;;;;25.73;17.63;;;8.00;99.90;;;;;;5030073;28;20100;-48
2020/12/08 11:57:46;;;;;;;23.92;17.80;;;7.90;99.90;;;;;;5030426;28;20173;-46
2020/12/08 12:00:12;;;;;;;25.73;18.42;;;7.70;99.90;;;;;;5030738;28;20045;-48
2020/12/08 12:02:39;;;;;;;26.17;17.50;;;7.70;99.90;;;;;;5037400;28;20564;-47
2020/12/08 12:05:06;;;;;;;26.02;18.83;;;7.60;99.90;;;;;;5032249;28;20071;-49
2020/12/08 12:07:32;;;;;;;24.67;16.65;;;7.60;99.90;;;;;;5029359;28;20449;-47
2020/12/08 12:09:57;;;;;;;28.77;18.70;;;7.60;99.90;;;;;;5030554;28;20113;-47
2020/12/08 12:12:23;;;;;;;27.13;18.13;;;7.50;99.90;;;;;;5030349;28;20093;-46
2020/12/08 12:14:49;;;;;;;26.35;18.70;;;7.40;99.90;;;;;;5029779;28;20018;-47
2020/12/08 12:17:14;;;;;;;28.33;18.92;;;7.40;99.90;;;;;;5032170;28;20064;-47
2020/12/08 12:19:40;;;;;;;28.00;17.77;;;7.40;99.90;;;;;;5031418;28;20025;-46
2020/12/08 12:22:06;;;;;;;32.58;20.17;;;7.30;99.90;;;;;;5030944;28;20028;-46
2020/12/08 12:24:31;;;;;;;28.73;18.63;;;7.50;99.90;;;;;;5031162;28;20033;-46
2020/12/08 12:26:57;;;;;;;30.42;18.92;;;7.40;99.90;;;;;;5030901;28;20022;-46
2020/12/08 12:29:23;;;;;;;34.20;19.85;;;7.30;99.90;;;;;;5037947;28;20365;-52
2020/12/08 12:31:49;;;;;;;26.45;17.75;;;7.30;99.90;;;;;;5032332;28;20028;-46
2020/12/08 12:34:15;;;;;;;30.95;17.58;;;7.20;99.90;;;;;;5029769;28;20029;-47
2020/12/08 12:36:41;;;;;;;29.58;18.65;;;7.20;99.90;;;;;;5027925;28;20621;-47